createdAt,value
2022-08-20T00:00:09.437Z,989.64
2022-08-20T00:01:09.439Z,989.64
2022-08-20T00:02:09.501Z,989.70
2022-08-20T00:03:09.441Z,989.67
2022-08-20T00:04:09.419Z,989.67
2022-08-20T00:05:09.420Z,989.69
2022-08-20T00:06:09.389Z,989.70
2022-08-20T00:07:09.402Z,989.72
2022-08-20T00:08:09.412Z,989.72
2022-08-20T00:09:09.380Z,989.73
2022-08-20T00:10:09.374Z,989.73
2022-08-20T00:11:09.366Z,989.68
2022-08-20T00:12:09.370Z,989.68
2022-08-20T00:13:09.398Z,989.70
2022-08-20T00:14:09.351Z,989.66
2022-08-20T00:15:09.341Z,989.63
2022-08-20T00:16:09.354Z,989.63
2022-08-20T00:17:09.349Z,989.61
2022-08-20T00:18:09.337Z,989.61
2022-08-20T00:19:09.343Z,989.60
2022-08-20T00:20:09.326Z,989.64
2022-08-20T00:21:09.324Z,989.64
2022-08-20T00:22:09.314Z,989.63
2022-08-20T00:23:10.642Z,989.64
2022-08-20T00:24:09.331Z,989.63
2022-08-20T00:25:09.290Z,989.64
2022-08-20T00:26:09.299Z,989.63
2022-08-20T00:27:09.301Z,989.65
2022-08-20T00:28:09.295Z,989.65
2022-08-20T00:29:09.314Z,989.67
2022-08-20T00:30:09.270Z,989.66
2022-08-20T00:31:09.302Z,989.66
2022-08-20T00:32:09.261Z,989.65
2022-08-20T00:33:09.275Z,989.64
2022-08-20T00:34:09.259Z,989.64
2022-08-20T00:35:09.245Z,989.59
2022-08-20T00:36:09.261Z,989.60
2022-08-20T00:37:09.249Z,989.67
2022-08-20T00:38:09.254Z,989.61
2022-08-20T00:39:09.246Z,989.60
2022-08-20T00:40:22.445Z,989.58
2022-08-20T00:41:09.224Z,989.58
2022-08-20T00:42:09.235Z,989.55
2022-08-20T00:43:09.230Z,989.53
2022-08-20T00:44:09.202Z,989.52
2022-08-20T00:45:09.231Z,989.56
2022-08-20T00:46:09.207Z,989.52
2022-08-20T00:47:09.219Z,989.52
2022-08-20T00:48:09.195Z,989.49
2022-08-20T00:49:09.223Z,989.47
2022-08-20T00:50:09.177Z,989.48
2022-08-20T00:51:09.202Z,989.51
2022-08-20T00:52:09.173Z,989.51
2022-08-20T00:53:09.160Z,989.50
2022-08-20T00:54:09.170Z,989.48
2022-08-20T00:55:09.152Z,989.49
2022-08-20T00:56:09.148Z,989.50
2022-08-20T00:57:09.171Z,989.54
2022-08-20T00:58:09.202Z,989.52
2022-08-20T00:59:09.146Z,989.54
2022-08-20T01:00:09.296Z,989.54
2022-08-20T01:01:09.177Z,989.55
2022-08-20T01:02:09.313Z,989.52
2022-08-20T01:03:09.114Z,989.52
2022-08-20T01:04:09.117Z,989.50
2022-08-20T01:05:09.112Z,989.51
2022-08-20T01:06:09.098Z,989.50
2022-08-20T01:07:09.099Z,989.49
2022-08-20T01:08:09.095Z,989.52
2022-08-20T01:09:09.105Z,989.51
2022-08-20T01:10:09.130Z,989.44
2022-08-20T01:11:09.096Z,989.47
2022-08-20T01:12:09.072Z,989.46
2022-08-20T01:13:09.082Z,989.44
2022-08-20T01:14:09.050Z,989.46
2022-08-20T01:15:09.052Z,989.42
2022-08-20T01:16:09.048Z,989.44
2022-08-20T01:17:09.056Z,989.42
2022-08-20T01:18:09.031Z,989.44
2022-08-20T01:19:29.931Z,989.49
2022-08-20T01:20:09.024Z,989.49
2022-08-20T01:21:09.040Z,989.50
2022-08-20T01:22:09.029Z,989.47
2022-08-20T01:23:09.012Z,989.49
2022-08-20T01:24:08.999Z,989.50
2022-08-20T01:25:09.008Z,989.50
2022-08-20T01:26:09.015Z,989.49
2022-08-20T01:27:08.994Z,989.49
2022-08-20T01:28:08.996Z,989.46
2022-08-20T01:29:08.981Z,989.46
2022-08-20T01:30:08.979Z,989.45
2022-08-20T01:31:08.975Z,989.45
2022-08-20T01:32:08.970Z,989.42
2022-08-20T01:33:08.963Z,989.47
2022-08-20T01:34:08.976Z,989.45
2022-08-20T01:35:09.168Z,989.47
2022-08-20T01:36:08.950Z,989.48
2022-08-20T01:37:08.944Z,989.50
2022-08-20T01:38:08.934Z,989.46
2022-08-20T01:39:08.919Z,989.49
2022-08-20T01:40:09.350Z,989.52
2022-08-20T01:41:08.920Z,989.53
2022-08-20T01:42:09.151Z,989.48
2022-08-20T01:43:08.917Z,989.53
2022-08-20T01:44:16.837Z,989.48
2022-08-20T01:45:08.911Z,989.56
2022-08-20T01:46:08.905Z,989.55
2022-08-20T01:47:08.894Z,989.52
2022-08-20T01:48:08.914Z,989.54
2022-08-20T01:49:13.487Z,989.57
2022-08-20T01:50:08.881Z,989.57
2022-08-20T01:51:08.874Z,989.57
2022-08-20T01:52:08.884Z,989.58
2022-08-20T01:53:08.864Z,989.56
2022-08-20T01:54:08.859Z,989.60
2022-08-20T01:55:08.872Z,989.60
2022-08-20T01:56:08.843Z,989.59
2022-08-20T01:57:08.847Z,989.60
2022-08-20T01:58:08.848Z,989.61
2022-08-20T01:59:09.022Z,989.61
2022-08-20T02:00:09.135Z,989.62
2022-08-20T02:01:08.862Z,989.64
2022-08-20T02:02:09.224Z,989.65
2022-08-20T02:03:08.809Z,989.67
2022-08-20T02:04:09.061Z,989.71
2022-08-20T02:05:09.131Z,989.72
2022-08-20T02:06:08.995Z,989.73
2022-08-20T02:07:08.787Z,989.74
2022-08-20T02:08:08.997Z,989.72
2022-08-20T02:09:12.138Z,989.74
2022-08-20T02:10:08.966Z,989.77
2022-08-20T02:11:09.819Z,989.76
2022-08-20T02:12:09.069Z,989.75
2022-08-20T02:13:09.131Z,989.73
2022-08-20T02:14:08.752Z,989.71
2022-08-20T02:15:08.878Z,989.74
2022-08-20T02:16:08.999Z,989.72
2022-08-20T02:17:08.734Z,989.72
2022-08-20T02:18:08.985Z,989.75
2022-08-20T02:19:08.995Z,989.75
2022-08-20T02:20:08.722Z,989.75
2022-08-20T02:21:09.229Z,989.75
2022-08-20T02:22:09.056Z,989.75
2022-08-20T02:23:08.704Z,989.75
2022-08-20T02:24:08.978Z,989.79
2022-08-20T02:25:09.015Z,989.79
2022-08-20T02:26:08.888Z,989.79
2022-08-20T02:27:08.945Z,989.74
2022-08-20T02:28:08.669Z,989.78
2022-08-20T02:29:08.927Z,989.78
2022-08-20T02:30:08.933Z,989.80
2022-08-20T02:31:09.067Z,989.80
2022-08-20T02:32:24.828Z,989.80
2022-08-20T02:33:08.902Z,989.76
2022-08-20T02:34:22.284Z,989.82
2022-08-20T02:35:08.651Z,989.76
2022-08-20T02:36:08.906Z,989.79
2022-08-20T02:37:09.373Z,989.82
2022-08-20T02:38:08.882Z,989.81
2022-08-20T02:39:08.886Z,989.79
2022-08-20T02:40:08.911Z,989.80
2022-08-20T02:41:08.900Z,989.83
2022-08-20T02:42:08.613Z,989.82
2022-08-20T02:43:08.589Z,989.82
2022-08-20T02:44:08.608Z,989.83
2022-08-20T02:45:08.585Z,989.79
2022-08-20T02:46:08.576Z,989.82
2022-08-20T02:47:08.580Z,989.81
2022-08-20T02:48:08.597Z,989.81
2022-08-20T02:49:08.574Z,989.81
2022-08-20T02:50:08.558Z,989.82
2022-08-20T02:51:08.562Z,989.79
2022-08-20T02:52:08.551Z,989.78
2022-08-20T02:53:08.566Z,989.75
2022-08-20T02:54:08.541Z,989.77
2022-08-20T02:55:08.554Z,989.81
2022-08-20T02:56:08.547Z,989.78
2022-08-20T02:57:08.530Z,989.79
2022-08-20T02:58:08.515Z,989.78
2022-08-20T02:59:08.525Z,989.76
2022-08-20T03:00:08.519Z,989.75
2022-08-20T03:01:08.540Z,989.75
2022-08-20T03:02:08.503Z,989.71
2022-08-20T03:03:08.507Z,989.74
2022-08-20T03:04:08.492Z,989.74
2022-08-20T03:05:08.486Z,989.78
2022-08-20T03:06:08.480Z,989.72
2022-08-20T03:07:08.490Z,989.78
2022-08-20T03:08:08.525Z,989.75
2022-08-20T03:09:08.486Z,989.72
2022-08-20T03:10:08.470Z,989.75
2022-08-20T03:11:08.456Z,989.74
2022-08-20T03:12:08.445Z,989.72
2022-08-20T03:13:08.448Z,989.72
2022-08-20T03:14:08.434Z,989.76
2022-08-20T03:15:08.632Z,989.74
2022-08-20T03:16:08.432Z,989.74
2022-08-20T03:17:08.432Z,989.74
2022-08-20T03:18:08.424Z,989.76
2022-08-20T03:19:08.419Z,989.74
2022-08-20T03:20:08.412Z,989.74
2022-08-20T03:21:09.891Z,989.72
2022-08-20T03:22:08.395Z,989.71
2022-08-20T03:23:08.390Z,989.73
2022-08-20T03:24:08.394Z,989.69
2022-08-20T03:25:08.388Z,989.69
2022-08-20T03:26:08.374Z,989.72
2022-08-20T03:27:08.395Z,989.70
2022-08-20T03:28:08.360Z,989.69
2022-08-20T03:29:08.367Z,989.74
2022-08-20T03:30:08.355Z,989.73
2022-08-20T03:31:08.359Z,989.73
2022-08-20T03:32:08.348Z,989.73
2022-08-20T03:33:08.334Z,989.73
2022-08-20T03:34:08.333Z,989.71
2022-08-20T03:35:08.343Z,989.67
2022-08-20T03:36:08.328Z,989.69
2022-08-20T03:37:08.319Z,989.63
2022-08-20T03:38:08.312Z,989.64
2022-08-20T03:39:08.315Z,989.67
2022-08-20T03:40:08.369Z,989.60
2022-08-20T03:41:08.297Z,989.62
2022-08-20T03:42:08.298Z,989.58
2022-08-20T03:43:08.289Z,989.63
2022-08-20T03:44:08.290Z,989.64
2022-08-20T03:45:08.280Z,989.63
2022-08-20T03:46:21.995Z,989.63
2022-08-20T03:47:08.268Z,989.62
2022-08-20T03:48:08.262Z,989.64
2022-08-20T03:49:08.263Z,989.65
2022-08-20T03:50:08.255Z,989.63
2022-08-20T03:51:08.247Z,989.66
2022-08-20T03:52:08.244Z,989.64
2022-08-20T03:53:08.232Z,989.66
2022-08-20T03:54:08.246Z,989.63
2022-08-20T03:55:08.228Z,989.65
2022-08-20T03:56:08.217Z,989.67
2022-08-20T03:57:12.594Z,989.63
2022-08-20T03:58:08.214Z,989.66
2022-08-20T03:59:08.207Z,989.62
2022-08-20T04:00:08.209Z,989.66
2022-08-20T04:01:36.829Z,989.64
2022-08-20T04:02:08.229Z,989.64
2022-08-20T04:03:08.397Z,989.61
2022-08-20T04:04:12.655Z,989.65
2022-08-20T04:05:08.188Z,989.65
2022-08-20T04:06:08.385Z,989.65
2022-08-20T04:07:08.169Z,989.65
2022-08-20T04:08:08.173Z,989.62
2022-08-20T04:09:09.508Z,989.63
2022-08-20T04:10:08.397Z,989.65
2022-08-20T04:11:08.151Z,989.67
2022-08-20T04:12:08.143Z,989.67
2022-08-20T04:13:08.142Z,989.64
2022-08-20T04:14:09.215Z,989.69
2022-08-20T04:15:08.124Z,989.70
2022-08-20T04:16:08.128Z,989.71
2022-08-20T04:17:08.124Z,989.73
2022-08-20T04:18:08.106Z,989.69
2022-08-20T04:19:08.108Z,989.69
2022-08-20T04:20:08.109Z,989.69
2022-08-20T04:21:08.096Z,989.71
2022-08-20T04:22:08.116Z,989.73
2022-08-20T04:23:08.083Z,989.74
2022-08-20T04:24:08.087Z,989.73
2022-08-20T04:25:08.098Z,989.70
2022-08-20T04:26:08.062Z,989.71
2022-08-20T04:27:08.064Z,989.71
2022-08-20T04:28:08.055Z,989.70
2022-08-20T04:29:08.071Z,989.67
2022-08-20T04:30:08.087Z,989.71
2022-08-20T04:31:08.053Z,989.71
2022-08-20T04:32:08.058Z,989.74
2022-08-20T04:33:08.035Z,989.73
2022-08-20T04:34:08.066Z,989.74
2022-08-20T04:35:08.034Z,989.73
2022-08-20T04:36:08.025Z,989.69
2022-08-20T04:37:16.895Z,989.76
2022-08-20T04:38:08.221Z,989.70
2022-08-20T04:39:08.034Z,989.69
2022-08-20T04:40:08.093Z,989.69
2022-08-20T04:41:08.032Z,989.70
2022-08-20T04:42:07.997Z,989.71
2022-08-20T04:43:08.353Z,989.75
2022-08-20T04:44:07.995Z,989.78
2022-08-20T04:45:07.993Z,989.78
2022-08-20T04:46:07.978Z,989.78
2022-08-20T04:47:08.012Z,989.84
2022-08-20T04:48:11.666Z,989.84
2022-08-20T04:49:07.967Z,989.85
2022-08-20T04:50:07.977Z,989.89
2022-08-20T04:51:07.953Z,989.92
2022-08-20T04:52:07.959Z,989.95
2022-08-20T04:53:07.976Z,989.97
2022-08-20T04:54:07.953Z,989.96
2022-08-20T04:55:07.976Z,989.95
2022-08-20T04:56:07.929Z,989.96
2022-08-20T04:57:07.961Z,989.94
2022-08-20T04:58:07.955Z,989.93
2022-08-20T04:59:07.916Z,989.93
2022-08-20T05:00:07.924Z,989.93
2022-08-20T05:01:07.956Z,989.92
2022-08-20T05:02:07.920Z,989.95
2022-08-20T05:03:07.905Z,989.94
2022-08-20T05:04:07.917Z,989.97
2022-08-20T05:05:07.901Z,989.95
2022-08-20T05:06:07.906Z,989.96
2022-08-20T05:07:07.922Z,989.97
2022-08-20T05:08:18.819Z,989.98
2022-08-20T05:09:07.870Z,989.95
2022-08-20T05:10:07.868Z,989.97
2022-08-20T05:11:34.253Z,989.99
2022-08-20T05:12:07.898Z,989.95
2022-08-20T05:13:07.880Z,990.00
2022-08-20T05:14:08.284Z,989.96
2022-08-20T05:15:07.865Z,989.97
2022-08-20T05:16:07.884Z,989.95
2022-08-20T05:17:07.832Z,989.96
2022-08-20T05:18:07.800Z,989.97
2022-08-20T05:19:07.823Z,989.97
2022-08-20T05:20:07.795Z,989.98
2022-08-20T05:21:07.828Z,989.99
2022-08-20T05:22:07.792Z,989.96
2022-08-20T05:23:07.819Z,990.01
2022-08-20T05:24:07.778Z,989.99
2022-08-20T05:25:07.817Z,989.99
2022-08-20T05:26:07.772Z,990.01
2022-08-20T05:27:07.771Z,990.02
2022-08-20T05:28:07.986Z,990.01
2022-08-20T05:29:07.770Z,990.02
2022-08-20T05:30:07.768Z,990.03
2022-08-20T05:31:07.742Z,990.02
2022-08-20T05:32:07.765Z,990.06
2022-08-20T05:33:07.732Z,990.09
2022-08-20T05:34:07.735Z,990.11
2022-08-20T05:35:07.719Z,990.10
2022-08-20T05:36:07.729Z,990.09
2022-08-20T05:37:07.816Z,990.12
2022-08-20T05:38:07.714Z,990.13
2022-08-20T05:39:07.714Z,990.17
2022-08-20T05:40:07.762Z,990.15
2022-08-20T05:41:07.693Z,990.18
2022-08-20T05:42:07.692Z,990.17
2022-08-20T05:43:07.694Z,990.17
2022-08-20T05:44:07.693Z,990.20
2022-08-20T05:45:11.349Z,990.17
2022-08-20T05:46:07.716Z,990.19
2022-08-20T05:47:07.649Z,990.17
2022-08-20T05:48:07.667Z,990.16
2022-08-20T05:49:07.660Z,990.14
2022-08-20T05:50:07.659Z,990.15
2022-08-20T05:51:08.177Z,990.14
2022-08-20T05:52:07.641Z,990.16
2022-08-20T05:53:07.619Z,990.11
2022-08-20T05:54:07.675Z,990.13
2022-08-20T05:55:07.649Z,990.10
2022-08-20T05:56:07.649Z,990.10
2022-08-20T05:57:07.615Z,990.11
2022-08-20T05:58:07.648Z,990.16
2022-08-20T05:59:07.623Z,990.12
2022-08-20T06:00:07.853Z,990.15
2022-08-20T06:01:07.741Z,990.15
2022-08-20T06:02:07.921Z,990.16
2022-08-20T06:03:07.592Z,990.14
2022-08-20T06:04:07.603Z,990.15
2022-08-20T06:05:07.609Z,990.17
2022-08-20T06:06:18.184Z,990.18
2022-08-20T06:07:07.554Z,990.19
2022-08-20T06:08:08.165Z,990.21
2022-08-20T06:09:07.612Z,990.26
2022-08-20T06:10:07.606Z,990.24
2022-08-20T06:11:07.551Z,990.24
2022-08-20T06:12:07.581Z,990.22
2022-08-20T06:13:07.537Z,990.21
2022-08-20T06:14:07.589Z,990.16
2022-08-20T06:15:07.552Z,990.17
2022-08-20T06:16:07.527Z,990.18
2022-08-20T06:17:07.497Z,990.14
2022-08-20T06:18:10.211Z,990.17
2022-08-20T06:19:11.237Z,990.18
2022-08-20T06:20:07.504Z,990.18
2022-08-20T06:21:07.515Z,990.20
2022-08-20T06:22:18.024Z,990.16
2022-08-20T06:23:07.504Z,990.18
2022-08-20T06:24:07.465Z,990.22
2022-08-20T06:25:07.470Z,990.21
2022-08-20T06:26:07.470Z,990.23
2022-08-20T06:27:07.474Z,990.24
2022-08-20T06:28:07.454Z,990.21
2022-08-20T06:29:07.465Z,990.22
2022-08-20T06:30:07.449Z,990.22
2022-08-20T06:31:07.438Z,990.25
2022-08-20T06:32:07.431Z,990.20
2022-08-20T06:33:07.424Z,990.23
2022-08-20T06:34:07.425Z,990.26
2022-08-20T06:35:07.402Z,990.22
2022-08-20T06:36:07.406Z,990.24
2022-08-20T06:37:07.436Z,990.28
2022-08-20T06:38:07.398Z,990.24
2022-08-20T06:39:07.411Z,990.22
2022-08-20T06:40:07.487Z,990.29
2022-08-20T06:41:07.422Z,990.27
2022-08-20T06:42:07.615Z,990.31
2022-08-20T06:43:07.412Z,990.30
2022-08-20T06:44:07.406Z,990.30
2022-08-20T06:45:07.376Z,990.31
2022-08-20T06:46:07.412Z,990.34
2022-08-20T06:47:07.348Z,990.29
2022-08-20T06:48:07.389Z,990.31
2022-08-20T06:49:07.370Z,990.31
2022-08-20T06:50:07.329Z,990.31
2022-08-20T06:51:07.327Z,990.34
2022-08-20T06:52:07.326Z,990.35
2022-08-20T06:53:07.851Z,990.37
2022-08-20T06:54:07.321Z,990.39
2022-08-20T06:55:07.354Z,990.37
2022-08-20T06:56:07.357Z,990.38
2022-08-20T06:57:07.304Z,990.37
2022-08-20T06:58:07.341Z,990.34
2022-08-20T06:59:07.355Z,990.37
2022-08-20T07:00:07.288Z,990.39
2022-08-20T07:01:09.528Z,990.34
2022-08-20T07:02:07.275Z,990.37
2022-08-20T07:03:07.279Z,990.34
2022-08-20T07:04:07.313Z,990.38
2022-08-20T07:05:07.289Z,990.35
2022-08-20T07:06:07.263Z,990.33
2022-08-20T07:07:07.259Z,990.36
2022-08-20T07:08:07.296Z,990.41
2022-08-20T07:09:07.276Z,990.39
2022-08-20T07:10:07.482Z,990.41
2022-08-20T07:11:07.232Z,990.42
2022-08-20T07:12:07.239Z,990.43
2022-08-20T07:13:07.250Z,990.46
2022-08-20T07:14:07.233Z,990.46
2022-08-20T07:15:07.259Z,990.51
2022-08-20T07:16:07.227Z,990.45
2022-08-20T07:17:11.312Z,990.45
2022-08-20T07:18:07.208Z,990.49
2022-08-20T07:19:07.206Z,990.50
2022-08-20T07:20:07.419Z,990.48
2022-08-20T07:21:07.186Z,990.50
2022-08-20T07:22:07.202Z,990.50
2022-08-20T07:23:07.398Z,990.52
2022-08-20T07:24:07.180Z,990.49
2022-08-20T07:25:07.175Z,990.51
2022-08-20T07:26:07.170Z,990.52
2022-08-20T07:27:07.421Z,990.51
2022-08-20T07:28:07.359Z,990.52
2022-08-20T07:29:07.769Z,990.49
2022-08-20T07:30:10.924Z,990.53
2022-08-20T07:31:13.373Z,990.51
2022-08-20T07:32:07.163Z,990.52
2022-08-20T07:33:07.134Z,990.53
2022-08-20T07:34:07.164Z,990.56
2022-08-20T07:35:07.341Z,990.52
2022-08-20T07:36:07.124Z,990.57
2022-08-20T07:37:07.102Z,990.59
2022-08-20T07:38:07.138Z,990.58
2022-08-20T07:39:07.113Z,990.56
2022-08-20T07:40:07.245Z,990.55
2022-08-20T07:41:07.102Z,990.58
2022-08-20T07:42:07.157Z,990.55
2022-08-20T07:43:07.109Z,990.55
2022-08-20T07:44:07.074Z,990.53
2022-08-20T07:45:07.065Z,990.56
2022-08-20T07:46:07.070Z,990.56
2022-08-20T07:47:07.051Z,990.56
2022-08-20T07:48:07.273Z,990.54
2022-08-20T07:49:07.045Z,990.56
2022-08-20T07:50:07.213Z,990.54
2022-08-20T07:51:07.144Z,990.57
2022-08-20T07:52:07.127Z,990.53
2022-08-20T07:53:07.381Z,990.53
2022-08-20T07:54:07.203Z,990.54
2022-08-20T07:55:07.414Z,990.52
2022-08-20T07:56:07.071Z,990.53
2022-08-20T07:57:07.023Z,990.49
2022-08-20T07:58:07.008Z,990.55
2022-08-20T07:59:07.016Z,990.58
2022-08-20T08:00:07.022Z,990.55
2022-08-20T08:01:07.125Z,990.61
2022-08-20T08:02:06.999Z,990.56
2022-08-20T08:03:06.984Z,990.63
2022-08-20T08:04:06.980Z,990.66
2022-08-20T08:05:07.004Z,990.62
2022-08-20T08:06:07.000Z,990.63
2022-08-20T08:07:07.036Z,990.63
2022-08-20T08:08:07.486Z,990.61
2022-08-20T08:09:06.962Z,990.63
2022-08-20T08:10:06.953Z,990.65
2022-08-20T08:11:06.946Z,990.68
2022-08-20T08:12:07.085Z,990.68
2022-08-20T08:13:06.942Z,990.69
2022-08-20T08:14:07.199Z,990.66
2022-08-20T08:15:06.947Z,990.68
2022-08-20T08:16:07.062Z,990.66
2022-08-20T08:17:06.928Z,990.67
2022-08-20T08:18:07.305Z,990.67
2022-08-20T08:19:06.934Z,990.67
2022-08-20T08:20:07.173Z,990.68
2022-08-20T08:21:06.915Z,990.67
2022-08-20T08:22:07.297Z,990.65
2022-08-20T08:23:06.903Z,990.66
2022-08-20T08:24:06.921Z,990.66
2022-08-20T08:25:06.931Z,990.67
2022-08-20T08:26:06.928Z,990.62
2022-08-20T08:27:06.875Z,990.62
2022-08-20T08:28:06.882Z,990.66
2022-08-20T08:29:06.861Z,990.67
2022-08-20T08:30:06.878Z,990.68
2022-08-20T08:31:06.888Z,990.67
2022-08-20T08:32:06.861Z,990.67
2022-08-20T08:33:06.879Z,990.67
2022-08-20T08:34:06.884Z,990.68
2022-08-20T08:35:06.842Z,990.66
2022-08-20T08:36:06.828Z,990.66
2022-08-20T08:37:06.853Z,990.67
2022-08-20T08:38:06.888Z,990.66
2022-08-20T08:39:06.826Z,990.64
2022-08-20T08:40:06.897Z,990.68
2022-08-20T08:41:06.955Z,990.69
2022-08-20T08:42:06.828Z,990.69
2022-08-20T08:43:06.811Z,990.70
2022-08-20T08:44:06.805Z,990.70
2022-08-20T08:45:07.374Z,990.71
2022-08-20T08:46:06.793Z,990.72
2022-08-20T08:47:06.848Z,990.70
2022-08-20T08:48:06.951Z,990.74
2022-08-20T08:49:06.783Z,990.73
2022-08-20T08:50:06.957Z,990.76
2022-08-20T08:51:07.265Z,990.73
2022-08-20T08:52:06.910Z,990.74
2022-08-20T08:53:06.996Z,990.76
2022-08-20T08:54:07.387Z,990.75
2022-08-20T08:55:06.777Z,990.79
2022-08-20T08:56:06.858Z,990.80
2022-08-20T08:57:06.851Z,990.77
2022-08-20T08:58:17.120Z,990.83
2022-08-20T08:59:06.732Z,990.83
2022-08-20T09:00:06.971Z,990.83
2022-08-20T09:01:09.700Z,990.82
2022-08-20T09:02:06.822Z,990.86
2022-08-20T09:03:07.412Z,990.90
2022-08-20T09:04:06.731Z,990.92
2022-08-20T09:05:06.715Z,990.87
2022-08-20T09:06:06.817Z,990.90
2022-08-20T09:07:06.772Z,990.92
2022-08-20T09:08:06.738Z,990.93
2022-08-20T09:09:06.703Z,990.91
2022-08-20T09:10:06.714Z,990.92
2022-08-20T09:11:06.692Z,990.93
2022-08-20T09:12:06.711Z,990.95
2022-08-20T09:13:06.742Z,990.94
2022-08-20T09:14:06.687Z,990.98
2022-08-20T09:15:06.691Z,990.93
2022-08-20T09:16:06.692Z,990.94
2022-08-20T09:17:06.868Z,990.95
2022-08-20T09:18:06.660Z,990.97
2022-08-20T09:19:06.766Z,990.95
2022-08-20T09:20:06.680Z,990.94
2022-08-20T09:21:06.691Z,990.94
2022-08-20T09:22:06.940Z,990.95
2022-08-20T09:23:06.649Z,990.98
2022-08-20T09:24:06.685Z,990.96
2022-08-20T09:25:06.646Z,990.97
2022-08-20T09:26:06.629Z,990.99
2022-08-20T09:27:06.637Z,990.97
2022-08-20T09:28:06.621Z,990.97
2022-08-20T09:29:06.668Z,990.99
2022-08-20T09:30:06.652Z,990.97
2022-08-20T09:31:07.030Z,990.99
2022-08-20T09:32:06.641Z,990.99
2022-08-20T09:33:06.591Z,990.99
2022-08-20T09:34:06.615Z,990.99
2022-08-20T09:35:09.466Z,990.93
2022-08-20T09:36:31.826Z,990.95
2022-08-20T09:37:06.573Z,990.93
2022-08-20T09:38:06.611Z,990.95
2022-08-20T09:39:06.563Z,990.91
2022-08-20T09:40:06.714Z,990.91
2022-08-20T09:41:06.573Z,990.94
2022-08-20T09:42:06.598Z,990.95
2022-08-20T09:43:06.575Z,990.96
2022-08-20T09:44:06.617Z,990.95
2022-08-20T09:45:06.548Z,990.94
2022-08-20T09:46:06.571Z,990.95
2022-08-20T09:47:06.583Z,990.97
2022-08-20T09:48:10.413Z,990.94
2022-08-20T09:49:06.614Z,990.97
2022-08-20T09:50:06.571Z,990.98
2022-08-20T09:51:06.534Z,990.99
2022-08-20T09:52:06.522Z,991.00
2022-08-20T09:53:06.517Z,991.00
2022-08-20T09:54:06.566Z,991.00
2022-08-20T09:55:06.524Z,991.02
2022-08-20T09:56:06.530Z,991.00
2022-08-20T09:57:06.521Z,990.99
2022-08-20T09:58:06.504Z,991.03
2022-08-20T09:59:06.500Z,991.03
2022-08-20T10:00:06.519Z,991.05
2022-08-20T10:01:06.522Z,991.04
2022-08-20T10:02:06.542Z,991.04
2022-08-20T10:03:06.492Z,991.06
2022-08-20T10:04:06.533Z,991.03
2022-08-20T10:05:06.483Z,991.04
2022-08-20T10:06:06.481Z,991.01
2022-08-20T10:07:06.472Z,991.02
2022-08-20T10:08:06.462Z,991.04
2022-08-20T10:09:06.468Z,991.00
2022-08-20T10:10:06.517Z,990.99
2022-08-20T10:11:06.479Z,990.96
2022-08-20T10:12:06.461Z,991.01
2022-08-20T10:13:06.457Z,990.99
2022-08-20T10:14:06.464Z,990.98
2022-08-20T10:15:06.443Z,990.98
2022-08-20T10:16:06.439Z,990.98
2022-08-20T10:17:06.447Z,990.96
2022-08-20T10:18:06.423Z,990.94
2022-08-20T10:19:06.425Z,990.97
2022-08-20T10:20:06.439Z,990.99
2022-08-20T10:21:06.432Z,990.97
2022-08-20T10:22:06.627Z,990.93
2022-08-20T10:23:06.420Z,990.97
2022-08-20T10:24:06.426Z,990.94
2022-08-20T10:25:06.440Z,990.95
2022-08-20T10:26:06.407Z,990.93
2022-08-20T10:27:06.403Z,990.94
2022-08-20T10:28:06.401Z,990.93
2022-08-20T10:29:08.052Z,990.93
2022-08-20T10:30:06.891Z,990.93
2022-08-20T10:31:06.440Z,990.92
2022-08-20T10:32:06.424Z,990.90
2022-08-20T10:33:06.669Z,990.88
2022-08-20T10:34:06.384Z,990.88
2022-08-20T10:35:06.428Z,990.86
2022-08-20T10:36:06.412Z,990.87
2022-08-20T10:37:06.375Z,990.89
2022-08-20T10:38:06.367Z,990.89
2022-08-20T10:39:06.389Z,990.89
2022-08-20T10:40:06.414Z,990.92
2022-08-20T10:41:06.379Z,990.89
2022-08-20T10:42:06.403Z,990.91
2022-08-20T10:43:06.362Z,990.87
2022-08-20T10:44:06.374Z,990.90
2022-08-20T10:45:06.341Z,990.87
2022-08-20T10:46:06.347Z,990.90
2022-08-20T10:47:06.356Z,990.91
2022-08-20T10:48:06.349Z,990.94
2022-08-20T10:49:06.369Z,990.93
2022-08-20T10:50:06.424Z,990.92
2022-08-20T10:51:06.333Z,990.94
2022-08-20T10:52:06.558Z,990.93
2022-08-20T10:53:06.333Z,990.92
2022-08-20T10:54:08.209Z,990.88
2022-08-20T10:55:06.320Z,990.92
2022-08-20T10:56:06.326Z,990.94
2022-08-20T10:57:06.382Z,990.90
2022-08-20T10:58:06.298Z,990.88
2022-08-20T10:59:06.302Z,990.90
2022-08-20T11:00:06.323Z,990.90
2022-08-20T11:01:06.310Z,990.91
2022-08-20T11:02:06.404Z,990.90
2022-08-20T11:03:06.338Z,990.91
2022-08-20T11:04:06.344Z,990.85
2022-08-20T11:05:06.290Z,990.92
2022-08-20T11:06:06.281Z,990.91
2022-08-20T11:07:06.284Z,990.92
2022-08-20T11:08:06.279Z,990.91
2022-08-20T11:09:06.278Z,990.92
2022-08-20T11:10:09.285Z,990.95
2022-08-20T11:11:06.276Z,990.96
2022-08-20T11:12:06.266Z,990.93
2022-08-20T11:13:06.292Z,990.94
2022-08-20T11:14:06.270Z,990.93
2022-08-20T11:15:06.264Z,990.94
2022-08-20T11:16:06.268Z,990.92
2022-08-20T11:17:06.505Z,990.93
2022-08-20T11:18:06.285Z,990.94
2022-08-20T11:19:06.258Z,990.96
2022-08-20T11:20:06.252Z,990.94
2022-08-20T11:21:06.265Z,990.95
2022-08-20T11:22:06.260Z,990.95
2022-08-20T11:23:06.242Z,990.95
2022-08-20T11:24:06.238Z,990.94
2022-08-20T11:25:06.236Z,990.95
2022-08-20T11:26:06.224Z,990.95
2022-08-20T11:27:06.245Z,990.96
2022-08-20T11:28:06.255Z,990.95
2022-08-20T11:29:06.422Z,990.99
2022-08-20T11:30:06.243Z,990.96
2022-08-20T11:31:06.928Z,990.97
2022-08-20T11:32:06.238Z,990.99
2022-08-20T11:33:07.062Z,990.98
2022-08-20T11:34:12.079Z,990.98
2022-08-20T11:35:24.452Z,990.99
2022-08-20T11:36:06.205Z,991.00
2022-08-20T11:37:06.231Z,991.00
2022-08-20T11:38:06.226Z,991.01
2022-08-20T11:39:06.218Z,991.06
2022-08-20T11:40:06.289Z,991.01
2022-08-20T11:41:06.204Z,991.06
2022-08-20T11:42:06.204Z,991.11
2022-08-20T11:43:15.146Z,991.08
2022-08-20T11:44:20.390Z,991.08
2022-08-20T11:45:06.210Z,991.10
2022-08-20T11:46:06.179Z,991.06
2022-08-20T11:47:06.185Z,991.07
2022-08-20T11:48:06.160Z,991.09
2022-08-20T11:49:06.173Z,991.08
2022-08-20T11:50:06.168Z,991.05
2022-08-20T11:51:06.173Z,991.06
2022-08-20T11:52:06.193Z,991.00
2022-08-20T11:53:06.176Z,991.02
2022-08-20T11:54:06.150Z,991.03
2022-08-20T11:55:06.171Z,991.03
2022-08-20T11:56:06.167Z,991.04
2022-08-20T11:57:06.141Z,991.01
2022-08-20T11:58:06.165Z,991.01
2022-08-20T11:59:06.266Z,991.00
2022-08-20T12:00:06.140Z,991.01
2022-08-20T12:01:06.125Z,991.02
2022-08-20T12:02:11.683Z,991.00
2022-08-20T12:03:08.643Z,991.00
2022-08-20T12:04:06.133Z,991.00
2022-08-20T12:05:06.134Z,990.97
2022-08-20T12:06:06.127Z,990.99
2022-08-20T12:07:06.134Z,990.99
2022-08-20T12:08:06.115Z,990.99
2022-08-20T12:09:06.103Z,990.95
2022-08-20T12:10:06.120Z,990.93
2022-08-20T12:11:06.124Z,990.96
2022-08-20T12:12:06.090Z,990.95
2022-08-20T12:13:06.098Z,990.94
2022-08-20T12:14:06.124Z,990.93
2022-08-20T12:15:06.117Z,990.90
2022-08-20T12:16:06.090Z,990.93
2022-08-20T12:17:06.107Z,990.93
2022-08-20T12:18:06.145Z,990.93
2022-08-20T12:19:06.085Z,990.92
2022-08-20T12:20:06.080Z,990.89
2022-08-20T12:21:06.099Z,990.93
2022-08-20T12:22:21.318Z,990.90
2022-08-20T12:23:06.091Z,990.88
2022-08-20T12:24:06.062Z,990.91
2022-08-20T12:25:06.056Z,990.86
2022-08-20T12:26:06.088Z,990.88
2022-08-20T12:27:06.068Z,990.89
2022-08-20T12:28:06.074Z,990.89